createdAt,value
2019-01-10T00:00:28.737Z,101874.78
2019-01-10T00:02:57.990Z,101877.84
2019-01-10T00:05:27.322Z,101874.34
2019-01-10T00:07:56.651Z,101883.83
2019-01-10T00:10:26.865Z,101887.52
2019-01-10T00:12:56.251Z,101885.55
2019-01-10T00:15:25.515Z,101889.84
2019-01-10T00:17:54.768Z,101890.91
2019-01-10T00:20:24.155Z,101893.78
2019-01-10T00:22:54.381Z,101897.34
2019-01-10T00:25:23.648Z,101890.52
2019-01-10T00:27:52.910Z,101888.24
2019-01-10T00:30:23.185Z,101890.80
2019-01-10T00:32:52.435Z,101885.86
2019-01-10T00:35:23.420Z,101887.96
2019-01-10T00:37:53.670Z,101892.11
2019-01-10T00:40:22.930Z,101892.22
2019-01-10T00:42:52.178Z,101894.69
2019-01-10T00:45:21.437Z,101898.98
2019-01-10T00:47:51.751Z,101900.20
2019-01-10T00:50:23.449Z,101894.89
2019-01-10T00:52:53.041Z,101894.20
2019-01-10T00:55:22.305Z,101896.20
2019-01-10T00:57:51.551Z,101896.96
2019-01-10T01:00:23.838Z,101904.56
2019-01-10T01:02:53.334Z,101909.19
2019-01-10T01:05:22.859Z,101901.21
2019-01-10T01:07:53.134Z,101909.25
2019-01-10T01:10:26.261Z,101916.24
2019-01-10T01:12:58.717Z,101912.64
2019-01-10T01:15:26.777Z,101912.17
2019-01-10T01:17:56.032Z,101911.77
2019-01-10T01:20:25.497Z,101911.23
2019-01-10T01:22:54.735Z,101922.16
2019-01-10T01:25:24.010Z,101926.29
2019-01-10T01:27:53.238Z,101922.02
2019-01-10T01:30:24.328Z,101926.41
2019-01-10T01:32:54.204Z,101921.33
2019-01-10T01:35:23.445Z,101921.39
2019-01-10T01:37:52.709Z,101931.67
2019-01-10T01:40:22.026Z,101924.44
2019-01-10T01:42:51.432Z,101934.39
2019-01-10T01:45:20.928Z,101936.89
2019-01-10T01:47:50.250Z,101944.45
2019-01-10T01:50:23.733Z,101942.37
2019-01-10T01:52:53.646Z,101949.49
2019-01-10T01:55:23.039Z,101952.89
2019-01-10T01:57:52.354Z,101953.88
2019-01-10T02:00:23.159Z,101951.38
2019-01-10T02:02:53.431Z,101955.95
2019-01-10T02:05:22.769Z,101955.23
2019-01-10T02:07:53.030Z,101956.30
2019-01-10T02:10:24.998Z,101963.81
2019-01-10T02:12:54.248Z,101959.55
2019-01-10T02:15:23.506Z,101967.97
2019-01-10T02:17:52.894Z,101967.49
2019-01-10T02:20:22.196Z,101967.33
2019-01-10T02:22:51.579Z,101972.16
2019-01-10T02:25:20.898Z,101971.48
2019-01-10T02:27:51.144Z,101973.88
2019-01-10T02:30:22.557Z,101967.67
2019-01-10T02:32:51.850Z,101980.80
2019-01-10T02:35:21.175Z,101970.16
2019-01-10T02:37:50.561Z,101973.20
2019-01-10T02:40:19.826Z,101985.66
2019-01-10T02:42:49.285Z,101986.73
2019-01-10T02:45:18.587Z,101980.64
2019-01-10T02:47:47.754Z,101988.74
2019-01-10T02:50:19.272Z,101992.23
2019-01-10T02:52:48.578Z,101992.64
2019-01-10T02:55:17.894Z,102008.73
2019-01-10T02:57:47.202Z,102000.30
2019-01-10T03:00:19.283Z,101998.84
2019-01-10T03:02:48.590Z,102002.19
2019-01-10T03:05:17.974Z,102001.15
2019-01-10T03:07:47.201Z,102003.09
2019-01-10T03:10:19.697Z,101994.52
2019-01-10T03:12:48.965Z,101994.83
2019-01-10T03:15:18.213Z,101994.99
2019-01-10T03:17:47.515Z,102000.02
2019-01-10T03:20:19.297Z,101996.41
2019-01-10T03:22:49.480Z,101990.06
2019-01-10T03:25:18.744Z,101995.30
2019-01-10T03:27:48.105Z,101994.62
2019-01-10T03:30:18.991Z,101989.87
2019-01-10T03:32:49.072Z,101997.23
2019-01-10T03:35:18.374Z,101993.55
2019-01-10T03:37:47.652Z,101993.44
2019-01-10T03:40:18.713Z,101991.37
2019-01-10T03:42:48.032Z,101990.61
2019-01-10T03:45:18.907Z,101999.12
2019-01-10T03:47:48.176Z,101990.82
2019-01-10T03:50:17.971Z,101993.75
2019-01-10T03:52:47.274Z,102002.73
2019-01-10T03:55:16.509Z,101994.47
2019-01-10T03:57:45.847Z,102002.12
2019-01-10T04:00:20.954Z,101996.88
2019-01-10T04:02:51.190Z,101992.44
2019-01-10T04:05:20.496Z,102002.23
2019-01-10T04:07:49.810Z,101995.98
2019-01-10T04:10:19.131Z,102000.91
2019-01-10T04:12:48.370Z,101997.02
2019-01-10T04:15:17.900Z,102002.33
2019-01-10T04:17:47.412Z,102002.83
2019-01-10T04:20:17.522Z,102008.55
2019-01-10T04:22:46.841Z,102007.44
2019-01-10T04:25:16.257Z,102006.82
2019-01-10T04:27:45.496Z,102006.34
2019-01-10T04:30:16.672Z,102010.26
2019-01-10T04:32:45.939Z,102011.33
2019-01-10T04:35:15.206Z,102003.00
2019-01-10T04:37:44.516Z,102007.39
2019-01-10T04:40:18.365Z,102010.96
2019-01-10T04:42:47.628Z,102002.70
2019-01-10T04:45:16.905Z,102017.19
2019-01-10T04:47:46.138Z,102008.98
2019-01-10T04:50:15.746Z,102015.58
2019-01-10T04:52:45.007Z,102016.36
2019-01-10T04:55:14.575Z,102014.52
2019-01-10T04:57:44.734Z,102015.73
2019-01-10T05:00:17.466Z,102014.05
2019-01-10T05:02:47.699Z,102019.48
2019-01-10T05:05:16.923Z,102021.00
2019-01-10T05:07:46.171Z,102024.59
2019-01-10T05:10:15.410Z,102024.88
2019-01-10T05:12:44.644Z,102020.64
2019-01-10T05:15:15.514Z,102018.66
2019-01-10T05:17:44.788Z,102019.27
2019-01-10T05:20:16.264Z,102022.78
2019-01-10T05:22:45.517Z,102021.70
2019-01-10T05:25:14.824Z,102020.65
2019-01-10T05:27:44.064Z,102016.30
2019-01-10T05:30:16.614Z,102014.78
2019-01-10T05:32:45.832Z,102010.30
2019-01-10T05:35:15.100Z,102016.78
2019-01-10T05:37:44.333Z,102012.09
2019-01-10T05:40:13.819Z,102007.16
2019-01-10T05:42:43.075Z,102010.02
2019-01-10T05:45:14.675Z,102006.70
2019-01-10T05:47:43.978Z,102007.00
2019-01-10T05:50:17.620Z,102010.45
2019-01-10T05:52:45.923Z,102011.77
2019-01-10T05:55:17.427Z,102014.07
2019-01-10T05:57:46.738Z,102021.59
2019-01-10T06:00:21.829Z,102017.81
2019-01-10T06:02:52.019Z,102026.61
2019-01-10T06:05:21.282Z,102024.20
2019-01-10T06:07:50.587Z,102028.45
2019-01-10T06:10:24.968Z,102040.59
2019-01-10T06:12:54.222Z,102042.08
2019-01-10T06:15:23.525Z,102046.55
2019-01-10T06:17:52.832Z,102043.44
2019-01-10T06:20:23.523Z,102051.81
2019-01-10T06:22:52.752Z,102054.07
2019-01-10T06:25:22.005Z,102047.12
2019-01-10T06:27:51.239Z,102057.79
2019-01-10T06:30:22.139Z,102062.20
2019-01-10T06:32:51.364Z,102061.63
2019-01-10T06:35:20.699Z,102063.53
2019-01-10T06:37:49.954Z,102065.92
2019-01-10T06:40:20.594Z,102067.94
2019-01-10T06:42:49.942Z,102073.75
2019-01-10T06:45:19.461Z,102074.35
2019-01-10T06:47:49.667Z,102075.89
2019-01-10T06:50:18.996Z,102078.22
2019-01-10T06:52:48.334Z,102069.67
2019-01-10T06:55:18.483Z,102078.73
2019-01-10T06:57:49.278Z,102078.90
2019-01-10T07:00:20.775Z,102075.20
2019-01-10T07:02:50.153Z,102083.52
2019-01-10T07:05:20.522Z,102083.27
2019-01-10T07:07:56.433Z,102086.80
2019-01-10T07:10:26.252Z,102085.23
2019-01-10T07:12:55.510Z,102091.05
2019-01-10T07:15:24.744Z,102090.03
2019-01-10T07:17:54.981Z,102095.59
2019-01-10T07:20:24.278Z,102087.94
2019-01-10T07:22:53.875Z,102097.15
2019-01-10T07:25:23.126Z,102094.07
2019-01-10T07:27:53.337Z,102093.84
2019-01-10T07:30:24.996Z,102099.08
2019-01-10T07:32:54.244Z,102103.11
2019-01-10T07:35:25.619Z,102100.73
2019-01-10T07:37:54.841Z,102093.11
2019-01-10T07:40:24.146Z,102094.89
2019-01-10T07:42:53.414Z,102100.79
2019-01-10T07:45:23.696Z,102103.23
2019-01-10T07:47:52.966Z,102107.92
2019-01-10T07:50:30.091Z,102105.00
2019-01-10T07:52:59.341Z,102113.80
2019-01-10T07:55:29.554Z,102121.84
2019-01-10T07:57:58.824Z,102108.72
2019-01-10T08:00:28.976Z,102112.98
2019-01-10T08:02:58.309Z,102107.95
2019-01-10T08:05:27.557Z,102110.66
2019-01-10T08:07:58.705Z,102116.00
2019-01-10T08:10:27.965Z,102119.59
2019-01-10T08:12:57.218Z,102118.67
2019-01-10T08:15:27.523Z,102118.67
2019-01-10T08:17:56.758Z,102129.78
2019-01-10T08:20:26.964Z,102129.10
2019-01-10T08:22:56.224Z,102134.11
2019-01-10T08:25:26.452Z,102144.59
2019-01-10T08:27:55.838Z,102142.91
2019-01-10T08:30:25.242Z,102139.74
2019-01-10T08:32:54.561Z,102140.05
2019-01-10T08:35:24.779Z,102150.61
2019-01-10T08:37:54.088Z,102152.22
2019-01-10T08:40:23.307Z,102151.05
2019-01-10T08:42:52.733Z,102154.66
2019-01-10T08:45:22.315Z,102151.45
2019-01-10T08:47:51.597Z,102160.59
2019-01-10T08:50:23.101Z,102169.56
2019-01-10T08:52:53.729Z,102164.59
2019-01-10T08:55:22.986Z,102156.41
2019-01-10T08:57:52.215Z,102168.20
2019-01-10T09:00:22.036Z,102167.27
2019-01-10T09:02:52.313Z,102160.81
2019-01-10T09:05:21.574Z,102166.81
2019-01-10T09:07:50.813Z,102172.48
2019-01-10T09:10:22.406Z,102175.53
2019-01-10T09:12:51.637Z,102165.23
2019-01-10T09:15:25.454Z,102167.00
2019-01-10T09:17:51.821Z,102176.60
2019-01-10T09:20:21.064Z,102172.53
2019-01-10T09:22:50.341Z,102177.48
2019-01-10T09:25:19.588Z,102174.78
2019-01-10T09:27:48.908Z,102180.33
2019-01-10T09:30:20.378Z,102180.47
2019-01-10T09:32:51.639Z,102183.17
2019-01-10T09:35:21.325Z,102179.91
2019-01-10T09:37:50.592Z,102189.64
2019-01-10T09:40:21.263Z,102197.75
2019-01-10T09:42:50.508Z,102190.91
2019-01-10T09:45:21.504Z,102194.12
2019-01-10T09:47:50.891Z,102196.12
2019-01-10T09:50:21.714Z,102197.92
2019-01-10T09:52:51.341Z,102190.75
2019-01-10T09:55:20.703Z,102203.19
2019-01-10T09:57:49.944Z,102204.11
2019-01-10T10:00:22.099Z,102208.20
2019-01-10T10:02:53.275Z,102207.42
2019-01-10T10:05:22.532Z,102202.58
2019-01-10T10:07:51.856Z,102211.70
2019-01-10T10:10:21.859Z,102206.00
2019-01-10T10:12:51.183Z,102208.77
2019-01-10T10:15:21.077Z,102208.20
2019-01-10T10:17:50.375Z,102207.64
2019-01-10T10:20:21.664Z,102211.16
2019-01-10T10:22:51.006Z,102214.84
2019-01-10T10:25:20.231Z,102212.45
2019-01-10T10:27:49.635Z,102204.86
2019-01-10T10:30:20.200Z,102209.05
2019-01-10T10:32:49.456Z,102205.69
2019-01-10T10:35:19.942Z,102200.73
2019-01-10T10:37:49.289Z,102202.58
2019-01-10T10:40:19.355Z,102192.41
2019-01-10T10:42:49.236Z,102198.23
2019-01-10T10:45:19.636Z,102200.06
2019-01-10T10:47:49.210Z,102206.92
2019-01-10T10:50:21.104Z,102204.45
2019-01-10T10:52:50.517Z,102194.33
2019-01-10T10:55:19.811Z,102209.20
2019-01-10T10:57:49.284Z,102216.62
2019-01-10T11:00:21.711Z,102207.64
2019-01-10T11:02:52.070Z,102212.81
2019-01-10T11:05:21.436Z,102208.33
2019-01-10T11:07:51.697Z,102213.42
2019-01-10T11:10:21.281Z,102213.55
2019-01-10T11:12:51.494Z,102211.20
2019-01-10T11:15:20.716Z,102214.97
2019-01-10T11:17:50.927Z,102210.81
2019-01-10T11:20:22.172Z,102210.79
2019-01-10T11:22:51.479Z,102211.88
2019-01-10T11:25:22.872Z,102199.92
2019-01-10T11:27:52.126Z,102194.83
2019-01-10T11:30:21.627Z,102202.02
2019-01-10T11:32:50.862Z,102204.45
2019-01-10T11:35:21.315Z,102208.14
2019-01-10T11:37:50.548Z,102197.73
2019-01-10T11:40:20.935Z,102196.55
2019-01-10T11:42:50.264Z,102193.45
2019-01-10T11:45:21.063Z,102187.14
2019-01-10T11:47:50.370Z,102185.48
2019-01-10T11:50:19.614Z,102196.70
2019-01-10T11:52:48.881Z,102188.20
2019-01-10T11:55:18.219Z,102187.80
2019-01-10T11:57:47.458Z,102193.27
2019-01-10T12:00:25.506Z,102181.14
2019-01-10T12:02:55.097Z,102187.97
2019-01-10T12:05:24.358Z,102184.56
2019-01-10T12:07:53.671Z,102181.66
2019-01-10T12:10:22.991Z,102176.53
2019-01-10T12:12:52.817Z,102181.90
2019-01-10T12:15:22.123Z,102175.96
2019-01-10T12:17:51.446Z,102165.75
2019-01-10T12:20:21.670Z,102162.05
2019-01-10T12:22:50.897Z,102171.63
2019-01-10T12:25:20.313Z,102170.34
2019-01-10T12:27:49.562Z,102176.33
2019-01-10T12:30:20.761Z,102163.29
2019-01-10T12:32:49.992Z,102155.48
2019-01-10T12:35:20.694Z,102159.36
2019-01-10T12:37:49.932Z,102158.43
2019-01-10T12:40:19.187Z,102151.16
2019-01-10T12:42:48.406Z,102151.77
2019-01-10T12:45:19.496Z,102154.11
2019-01-10T12:47:49.700Z,102152.18
2019-01-10T12:50:21.094Z,102150.39
2019-01-10T12:52:50.350Z,102144.95
2019-01-10T12:55:19.613Z,102141.38
2019-01-10T12:57:49.104Z,102144.88
2019-01-10T13:00:20.880Z,102138.91
2019-01-10T13:02:50.193Z,102147.41
2019-01-10T13:05:20.722Z,102148.91
2019-01-10T13:07:50.983Z,102149.62
2019-01-10T13:10:20.617Z,102144.59
2019-01-10T13:12:50.205Z,102152.09
2019-01-10T13:15:24.080Z,102151.66
2019-01-10T13:17:53.336Z,102158.84
2019-01-10T13:20:22.667Z,102157.67
2019-01-10T13:22:58.738Z,102154.35
2019-01-10T13:25:28.131Z,102160.14
2019-01-10T13:27:57.439Z,102158.30
2019-01-10T13:30:26.834Z,102155.78
2019-01-10T13:32:57.404Z,102162.27
2019-01-10T13:35:27.597Z,102152.69
2019-01-10T13:37:59.003Z,102160.28
2019-01-10T13:40:28.266Z,102155.78
2019-01-10T13:42:58.484Z,102154.53
2019-01-10T13:45:27.726Z,102154.30
2019-01-10T13:47:57.172Z,102151.83
2019-01-10T13:50:28.223Z,102158.67
2019-01-10T13:52:57.583Z,102151.81
2019-01-10T13:55:26.893Z,102157.48
2019-01-10T13:57:58.087Z,102164.52
2019-01-10T14:00:28.558Z,102158.30
2019-01-10T14:02:57.810Z,102163.00
2019-01-10T14:05:27.064Z,102160.45
2019-01-10T14:07:56.319Z,102164.36
2019-01-10T14:10:26.560Z,102165.77
2019-01-10T14:12:55.889Z,102166.48
2019-01-10T14:15:27.650Z,102163.01
2019-01-10T14:17:57.927Z,102162.70
2019-01-10T14:20:27.267Z,102160.97
2019-01-10T14:22:57.505Z,102164.55
2019-01-10T14:25:28.795Z,102168.76
2019-01-10T14:27:59.846Z,102163.74
2019-01-10T14:30:31.716Z,102165.52
2019-01-10T14:33:00.968Z,102162.70
2019-01-10T14:35:31.252Z,102167.14
2019-01-10T14:38:02.455Z,102166.73
2019-01-10T14:40:31.709Z,102163.92
2019-01-10T14:43:00.963Z,102162.20
2019-01-10T14:45:30.269Z,102158.03
2019-01-10T14:48:01.933Z,102163.34
2019-01-10T14:50:31.494Z,102159.28
2019-01-10T14:53:01.602Z,102162.57
2019-01-10T14:55:31.948Z,102155.49
2019-01-10T14:58:01.267Z,102155.69
2019-01-10T15:00:31.467Z,102160.83
2019-01-10T15:03:01.753Z,102153.72
2019-01-10T15:05:34.557Z,102154.40
2019-01-10T15:08:02.119Z,102161.60
2019-01-10T15:10:32.414Z,102156.46
2019-01-10T15:13:02.566Z,102162.75
2019-01-10T15:15:32.807Z,102161.29
2019-01-10T15:18:03.021Z,102163.28
2019-01-10T15:20:32.328Z,102151.05
2019-01-10T15:23:02.535Z,102154.65
2019-01-10T15:25:31.818Z,102157.68
2019-01-10T15:28:01.031Z,102156.54
2019-01-10T15:30:30.292Z,102153.09
2019-01-10T15:33:00.457Z,102158.46
2019-01-10T15:35:29.726Z,102149.98
2019-01-10T15:37:59.028Z,102149.84
2019-01-10T15:40:30.099Z,102152.40
2019-01-10T15:42:59.434Z,102150.80
2019-01-10T15:45:28.824Z,102148.55
2019-01-10T15:47:58.145Z,102152.34
2019-01-10T15:50:27.403Z,102151.03
2019-01-10T15:52:57.657Z,102156.50
2019-01-10T15:55:26.943Z,102164.30
2019-01-10T15:57:57.162Z,102160.56
2019-01-10T16:00:28.551Z,102166.02
2019-01-10T16:02:58.757Z,102157.39
2019-01-10T16:05:27.990Z,102158.98
2019-01-10T16:07:57.248Z,102155.41
2019-01-10T16:10:27.462Z,102154.56
2019-01-10T16:12:56.783Z,102155.63
2019-01-10T16:15:26.089Z,102149.56
2019-01-10T16:17:55.332Z,102158.80
2019-01-10T16:20:25.576Z,102160.75
2019-01-10T16:22:55.793Z,102153.76
2019-01-10T16:25:25.073Z,102153.09
2019-01-10T16:27:55.357Z,102157.33
2019-01-10T16:30:28.656Z,102158.11
2019-01-10T16:32:58.827Z,102155.52
2019-01-10T16:35:28.070Z,102150.08
2019-01-10T16:37:57.328Z,102156.31
2019-01-10T16:40:26.571Z,102163.28
2019-01-10T16:42:55.828Z,102155.73
2019-01-10T16:45:26.702Z,102158.40
2019-01-10T16:47:55.951Z,102161.67
2019-01-10T16:50:25.175Z,102159.88
2019-01-10T16:52:54.415Z,102155.53
2019-01-10T16:55:24.595Z,102157.25
2019-01-10T16:57:53.840Z,102150.88
2019-01-10T17:00:30.461Z,102156.00
2019-01-10T17:03:00.861Z,102152.94
2019-01-10T17:05:30.249Z,102159.20
2019-01-10T17:07:59.557Z,102157.66
2019-01-10T17:10:28.828Z,102149.47
2019-01-10T17:12:58.079Z,102151.52
2019-01-10T17:15:28.319Z,102152.16
2019-01-10T17:17:58.526Z,102153.92
2019-01-10T17:20:28.751Z,102154.71
2019-01-10T17:22:57.977Z,102155.80
2019-01-10T17:25:27.230Z,102153.52
2019-01-10T17:27:56.467Z,102156.15
2019-01-10T17:30:27.354Z,102155.95
2019-01-10T17:32:56.649Z,102164.15
2019-01-10T17:35:28.038Z,102156.77
2019-01-10T17:37:58.266Z,102165.39
2019-01-10T17:40:27.567Z,102175.42
2019-01-10T17:42:56.893Z,102169.30
2019-01-10T17:45:30.926Z,102175.01
2019-01-10T17:48:00.345Z,102176.69
2019-01-10T17:50:29.631Z,102182.09
2019-01-10T17:52:58.885Z,102180.34
2019-01-10T17:55:28.143Z,102178.39
2019-01-10T17:57:57.395Z,102186.37
2019-01-10T18:00:29.398Z,102180.88
2019-01-10T18:02:58.728Z,102178.50
2019-01-10T18:05:27.985Z,102175.98
2019-01-10T18:07:57.233Z,102181.33
2019-01-10T18:10:28.489Z,102180.31
2019-01-10T18:12:57.742Z,102175.77
2019-01-10T18:15:27.064Z,102174.69
2019-01-10T18:17:56.306Z,102178.59
2019-01-10T18:20:30.962Z,102179.67
2019-01-10T18:23:00.254Z,102181.86
2019-01-10T18:25:29.524Z,102173.96
2019-01-10T18:27:58.762Z,102173.25
2019-01-10T18:30:27.989Z,102177.62
2019-01-10T18:32:58.302Z,102182.45
2019-01-10T18:35:27.715Z,102184.93
2019-01-10T18:37:56.953Z,102180.94
2019-01-10T18:40:27.147Z,102180.66
2019-01-10T18:42:56.452Z,102174.12
2019-01-10T18:45:30.584Z,102178.14
2019-01-10T18:47:59.834Z,102174.34
2019-01-10T18:50:29.058Z,102175.99
2019-01-10T18:52:58.297Z,102166.48
2019-01-10T18:55:28.992Z,102172.87
2019-01-10T18:57:58.313Z,102171.58
2019-01-10T19:00:28.850Z,102170.50
2019-01-10T19:02:58.629Z,102168.59
2019-01-10T19:05:29.961Z,102174.14
2019-01-10T19:07:59.279Z,102172.39
2019-01-10T19:10:29.432Z,102171.77
2019-01-10T19:12:58.762Z,102168.22
2019-01-10T19:15:28.182Z,102176.64
2019-01-10T19:18:03.134Z,102173.38
2019-01-10T19:20:32.458Z,102173.39
2019-01-10T19:23:01.779Z,102176.25
2019-01-10T19:25:31.956Z,102173.92
2019-01-10T19:28:01.213Z,102172.94
2019-01-10T19:30:30.827Z,102173.70
2019-01-10T19:33:01.358Z,102173.70
2019-01-10T19:35:30.708Z,102171.45
2019-01-10T19:38:00.928Z,102173.67
2019-01-10T19:40:30.189Z,102167.05
2019-01-10T19:42:59.440Z,102167.63
2019-01-10T19:45:28.689Z,102171.16
2019-01-10T19:47:58.851Z,102170.08
2019-01-10T19:50:28.130Z,102164.64
2019-01-10T19:52:57.348Z,102176.39
2019-01-10T19:55:27.590Z,102173.70
2019-01-10T19:57:56.923Z,102176.43
2019-01-10T20:00:35.496Z,102178.25
2019-01-10T20:03:05.803Z,102172.72
2019-01-10T20:05:35.130Z,102173.16
2019-01-10T20:08:04.406Z,102175.83
2019-01-10T20:10:33.674Z,102179.58
2019-01-10T20:13:03.835Z,102178.72
2019-01-10T20:15:33.148Z,102177.83
2019-01-10T20:18:02.412Z,102180.59
2019-01-10T20:20:37.478Z,102180.70
2019-01-10T20:23:08.136Z,102179.54
2019-01-10T20:25:39.433Z,102183.25
2019-01-10T20:28:09.689Z,102180.14
2019-01-10T20:30:39.109Z,102186.28
2019-01-10T20:33:08.441Z,102180.95
2019-01-10T20:35:37.746Z,102185.95
2019-01-10T20:38:07.158Z,102181.70
2019-01-10T20:40:36.463Z,102186.83
2019-01-10T20:43:05.709Z,102184.36
2019-01-10T20:45:35.131Z,102189.89
2019-01-10T20:48:06.328Z,102187.30
2019-01-10T20:50:36.636Z,102179.01
2019-01-10T20:53:05.893Z,102193.58
2019-01-10T20:55:35.161Z,102191.79
2019-01-10T20:58:04.529Z,102181.89
2019-01-10T21:00:33.808Z,102187.32
2019-01-10T21:03:03.122Z,102184.53
2019-01-10T21:05:33.306Z,102177.48
2019-01-10T21:08:02.528Z,102174.60
2019-01-10T21:10:31.863Z,102176.37
2019-01-10T21:13:02.137Z,102180.78
2019-01-10T21:15:31.473Z,102181.86
2019-01-10T21:18:00.966Z,102171.16
2019-01-10T21:20:30.216Z,102178.69
2019-01-10T21:22:59.524Z,102182.91
2019-01-10T21:25:28.853Z,102181.52
2019-01-10T21:27:58.668Z,102181.56
2019-01-10T21:30:27.900Z,102182.63
2019-01-10T21:32:57.124Z,102181.39
2019-01-10T21:35:26.368Z,102183.67
2019-01-10T21:37:55.608Z,102185.89
2019-01-10T21:40:25.945Z,102186.81
2019-01-10T21:42:55.266Z,102186.36
2019-01-10T21:45:24.683Z,102184.98
2019-01-10T21:47:55.972Z,102180.90
2019-01-10T21:50:26.172Z,102186.09
2019-01-10T21:52:55.494Z,102182.84
2019-01-10T21:55:24.768Z,102182.72
2019-01-10T21:57:55.115Z,102186.12
2019-01-10T22:00:29.145Z,102183.13
2019-01-10T22:02:58.837Z,102177.62
2019-01-10T22:05:28.075Z,102191.64
2019-01-10T22:07:57.392Z,102180.77
2019-01-10T22:10:28.865Z,102190.39
2019-01-10T22:12:58.121Z,102182.30
2019-01-10T22:15:28.332Z,102182.91
2019-01-10T22:17:57.580Z,102183.81
2019-01-10T22:20:26.831Z,102181.86
2019-01-10T22:22:56.071Z,102179.23
2019-01-10T22:25:25.306Z,102180.95
2019-01-10T22:27:55.227Z,102182.84
2019-01-10T22:30:24.506Z,102185.58
2019-01-10T22:32:53.737Z,102182.75
2019-01-10T22:35:23.971Z,102189.84
2019-01-10T22:37:53.298Z,102177.59
2019-01-10T22:40:23.078Z,102179.39
2019-01-10T22:42:52.485Z,102176.95
2019-01-10T22:45:21.717Z,102180.66
2019-01-10T22:47:51.980Z,102180.77
2019-01-10T22:50:21.417Z,102168.30
2019-01-10T22:52:51.692Z,102170.14
2019-01-10T22:55:21.092Z,102164.38
2019-01-10T22:57:50.351Z,102165.92
2019-01-10T23:00:53.402Z,102161.01
2019-01-10T23:03:22.670Z,102168.05
2019-01-10T23:05:51.906Z,102159.13
2019-01-10T23:08:21.161Z,102156.39
2019-01-10T23:10:50.679Z,102154.48
2019-01-10T23:13:20.877Z,102153.17
2019-01-10T23:15:51.100Z,102150.91
2019-01-10T23:18:26.400Z,102158.34
2019-01-10T23:20:56.791Z,102154.07
2019-01-10T23:23:26.127Z,102155.08
2019-01-10T23:25:55.426Z,102147.51
2019-01-10T23:28:24.666Z,102141.94
2019-01-10T23:30:57.576Z,102133.57
2019-01-10T23:33:27.412Z,102133.30
2019-01-10T23:36:02.027Z,102131.98
2019-01-10T23:38:31.423Z,102127.48
2019-01-10T23:41:00.728Z,102128.88
2019-01-10T23:43:31.204Z,102129.66
2019-01-10T23:46:00.462Z,102126.26
2019-01-10T23:48:29.684Z,102130.16
2019-01-10T23:50:58.936Z,102123.59
2019-01-10T23:53:28.178Z,102122.61
2019-01-10T23:55:58.444Z,102129.08
2019-01-10T23:58:27.688Z,102124.30
